Time;durP1;ratioP1;P1;durP2;ratioP2;P2;SDS_P1;SDS_P2;PMS_P1;PMS_P2;Temp;Humidity;BMP_temperature;BMP_pressure;BME280_temperature;BME280_humidity;BME280_pressure;Samples;Min_cycle;Max_cycle;Signal;HPM_P1;HPM_P2
2023/09/01 00:01:22;;;;;;;4.07;1.25;;;16.70;99.80;;;;;;4926361;29;20214;-76
2023/09/01 00:04:07;;;;;;;3.63;1.40;;;16.70;99.90;;;;;;4914184;29;20028;-76
2023/09/01 00:06:33;;;;;;;4.05;1.20;;;16.70;99.90;;;;;;4925394;29;20063;-74
2023/09/01 00:08:59;;;;;;;2.85;1.25;;;16.70;99.80;;;;;;4924400;29;20330;-75
2023/09/01 00:11:25;;;;;;;2.95;1.40;;;16.70;99.90;;;;;;4925285;29;20207;-76
2023/09/01 00:17:39;;;;;;;5.15;1.70;;;16.70;99.90;;;;;;4925790;29;20080;-75
2023/09/01 00:20:58;;;;;;;4.68;1.70;;;16.70;99.90;;;;;;4926396;29;20053;-76
2023/09/01 00:27:49;;;;;;;3.53;1.70;;;16.70;99.90;;;;;;4813075;29;20327;-75
2023/09/01 06:19:40;;;;;;;3.63;1.10;;;17.40;99.90;;;;;;5116198;23;20304;-75
2023/09/01 06:23:02;;;;;;;3.15;1.10;;;17.40;99.90;;;;;;4948853;29;20035;-75
2023/09/01 06:29:18;;;;;;;3.78;1.10;;;17.20;99.90;;;;;;4965877;29;20350;-77
2023/09/01 06:32:26;;;;;;;3.22;0.93;;;17.20;99.90;;;;;;4964173;29;20034;-76
2023/09/01 06:39:25;;;;;;;3.10;0.73;;;17.10;99.90;;;;;;4946741;29;20018;-75
2023/09/01 06:41:51;;;;;;;4.03;1.48;;;17.00;99.90;;;;;;4928413;29;20032;-77
2023/09/01 06:44:18;;;;;;;3.88;1.08;;;17.00;99.90;;;;;;4913511;29;20329;-78
2023/09/01 06:46:45;;;;;;;5.25;0.90;;;17.00;99.90;;;;;;4946735;29;20031;-78
2023/09/01 06:49:17;;;;;;;2.45;0.75;;;17.00;99.90;;;;;;4945813;29;20066;-76
2023/09/01 06:51:44;;;;;;;2.75;0.70;;;17.00;99.90;;;;;;4936676;29;20043;-74
2023/09/01 06:54:13;;;;;;;3.08;0.98;;;17.10;99.90;;;;;;4964952;29;20035;-76
2023/09/01 06:56:43;;;;;;;3.50;1.10;;;17.20;99.90;;;;;;4948497;29;20031;-76
2023/09/01 07:03:44;;;;;;;5.20;1.60;;;17.50;99.90;;;;;;4946641;29;20076;-76
2023/09/01 07:06:59;;;;;;;4.40;1.55;;;17.60;99.90;;;;;;4927929;29;20297;-75
2023/09/01 07:09:38;;;;;;;4.55;1.50;;;17.60;99.90;;;;;;4937535;29;20027;-76
2023/09/01 07:12:26;;;;;;;4.22;1.70;;;17.60;99.90;;;;;;4940083;29;20277;-76
2023/09/01 07:14:51;;;;;;;5.82;2.00;;;17.60;99.90;;;;;;4919397;29;20043;-76
2023/09/01 07:17:23;;;;;;;11.73;2.15;;;17.50;99.90;;;;;;4930164;29;20032;-76
2023/09/01 07:20:01;;;;;;;4.05;1.88;;;17.40;99.90;;;;;;4928029;29;20067;-76
2023/09/01 07:22:26;;;;;;;3.80;1.63;;;17.30;99.90;;;;;;4924777;29;20047;-75
2023/09/01 07:24:52;;;;;;;4.00;2.03;;;17.30;99.90;;;;;;4924917;29;20031;-74
2023/09/01 07:27:18;;;;;;;3.33;1.90;;;17.20;99.90;;;;;;4925847;29;20042;-74
2023/09/01 07:29:48;;;;;;;2.97;1.40;;;17.20;99.90;;;;;;4943959;29;20058;-75
2023/09/01 07:32:15;;;;;;;4.75;2.10;;;17.30;99.90;;;;;;4943277;29;20047;-74
2023/09/01 07:34:41;;;;;;;4.95;1.92;;;17.30;99.90;;;;;;4943598;29;20044;-76
2023/09/01 07:37:07;;;;;;;4.55;1.85;;;17.40;99.90;;;;;;4943070;29;20096;-76
2023/09/01 07:39:32;;;;;;;3.50;1.80;;;17.50;99.90;;;;;;4943864;29;20055;-74
2023/09/01 07:41:58;;;;;;;8.48;2.47;;;17.60;99.90;;;;;;4946821;29;20095;-74
2023/09/01 07:44:30;;;;;;;4.18;1.70;;;17.80;99.90;;;;;;4946393;29;20091;-75
2023/09/01 07:46:59;;;;;;;3.17;1.42;;;18.00;99.90;;;;;;4924772;29;20036;-74
2023/09/01 07:49:33;;;;;;;4.15;1.77;;;18.20;99.90;;;;;;4944942;29;20039;-75
2023/09/01 07:51:59;;;;;;;2.90;1.30;;;18.30;99.90;;;;;;4945442;29;20228;-76
2023/09/01 07:54:25;;;;;;;4.00;1.40;;;18.40;99.90;;;;;;4911974;29;20028;-76
2023/09/01 07:56:51;;;;;;;3.65;1.20;;;18.40;99.90;;;;;;4935316;29;20028;-76
2023/09/01 07:59:16;;;;;;;2.72;1.02;;;18.50;99.90;;;;;;4935502;29;20035;-75
2023/09/01 08:01:44;;;;;;;3.92;1.10;;;18.70;99.90;;;;;;4915771;29;20024;-74
2023/09/01 08:04:09;;;;;;;4.05;1.00;;;18.90;99.90;;;;;;4925581;29;20040;-74
2023/09/01 08:06:35;;;;;;;4.22;1.17;;;18.90;99.90;;;;;;4926058;29;20028;-73
2023/09/01 08:09:01;;;;;;;3.63;1.40;;;18.90;99.90;;;;;;4926108;29;20043;-74
2023/09/01 08:11:26;;;;;;;3.67;1.25;;;18.90;99.90;;;;;;4925837;29;20035;-73
2023/09/01 08:13:52;;;;;;;3.88;0.90;;;19.00;99.90;;;;;;4910540;29;20216;-74
2023/09/01 08:16:18;;;;;;;2.42;0.80;;;19.10;99.90;;;;;;4925593;29;20217;-74
2023/09/01 08:18:44;;;;;;;4.40;1.00;;;19.20;99.90;;;;;;4950862;29;20052;-74
2023/09/01 08:21:13;;;;;;;4.70;1.70;;;19.30;99.90;;;;;;4908835;29;20225;-74
2023/09/01 08:23:42;;;;;;;3.42;1.20;;;19.40;99.90;;;;;;4925975;29;20032;-77
2023/09/01 08:26:08;;;;;;;2.00;0.93;;;19.40;99.90;;;;;;4925340;29;20043;-74
2023/09/01 08:28:33;;;;;;;3.55;1.15;;;19.50;99.90;;;;;;4926251;29;20079;-75
2023/09/01 08:31:05;;;;;;;3.10;1.13;;;19.60;99.90;;;;;;4925897;29;20047;-74
2023/09/01 08:33:31;;;;;;;3.10;1.40;;;19.60;99.90;;;;;;4909344;29;20028;-74
2023/09/01 08:36:03;;;;;;;6.32;1.63;;;19.80;99.90;;;;;;4926162;29;20028;-74
2023/09/01 08:38:28;;;;;;;3.28;1.40;;;20.00;99.90;;;;;;4925957;29;20039;-75
2023/09/01 08:41:03;;;;;;;4.75;1.38;;;20.20;99.90;;;;;;4926023;29;20024;-74
2023/09/01 08:43:40;;;;;;;3.13;1.20;;;20.20;99.90;;;;;;4908563;29;20030;-74
2023/09/01 08:46:07;;;;;;;4.57;1.30;;;20.40;99.90;;;;;;4925786;29;20044;-74
2023/09/01 08:48:36;;;;;;;3.50;1.23;;;20.50;99.90;;;;;;4925689;29;20036;-74
2023/09/01 08:51:25;;;;;;;3.00;1.20;;;20.50;99.90;;;;;;4926020;29;20226;-76
2023/09/01 08:53:52;;;;;;;3.75;1.10;;;20.40;99.90;;;;;;4893745;29;20040;-74
2023/09/01 08:56:18;;;;;;;5.28;1.40;;;20.50;99.90;;;;;;4925361;29;20313;-75
2023/09/01 08:58:46;;;;;;;2.90;1.10;;;20.60;99.90;;;;;;4941013;29;20075;-74
2023/09/01 09:01:13;;;;;;;4.07;1.20;;;20.70;99.90;;;;;;4944217;29;20050;-75
2023/09/01 09:03:40;;;;;;;4.38;1.50;;;20.60;99.90;;;;;;4944382;29;20042;-74
2023/09/01 09:06:05;;;;;;;1.90;1.02;;;20.60;99.90;;;;;;4926624;29;20354;-73
2023/09/01 09:08:32;;;;;;;4.15;1.45;;;20.70;99.90;;;;;;4925073;29;20028;-73
2023/09/01 09:11:10;;;;;;;3.75;1.45;;;20.80;99.90;;;;;;4909059;29;20166;-75
2023/09/01 09:13:36;;;;;;;4.72;1.42;;;21.00;99.90;;;;;;4927381;29;20028;-74
2023/09/01 09:16:10;;;;;;;3.53;1.33;;;21.30;99.90;;;;;;4928738;29;20310;-74
2023/09/01 09:18:41;;;;;;;3.42;1.05;;;21.60;99.90;;;;;;4944548;29;20039;-74
2023/09/01 09:21:28;;;;;;;2.22;0.85;;;21.70;99.90;;;;;;4915268;29;20070;-74
2023/09/01 09:24:03;;;;;;;2.72;0.70;;;22.00;99.90;;;;;;4930994;29;20282;-75
2023/09/01 09:26:30;;;;;;;1.85;0.55;;;22.50;99.90;;;;;;4935248;29;20066;-76
2023/09/01 09:29:06;;;;;;;1.55;0.40;;;23.00;99.90;;;;;;4928825;29;20039;-76
2023/09/01 09:31:56;;;;;;;1.27;0.30;;;22.90;99.90;;;;;;4918759;29;20100;-75
2023/09/01 09:34:31;;;;;;;1.55;0.40;;;23.50;99.90;;;;;;4947211;29;20032;-76
2023/09/01 09:37:18;;;;;;;1.35;0.50;;;23.70;98.50;;;;;;4915144;29;20035;-76
2023/09/01 09:40:19;;;;;;;1.67;0.30;;;23.80;97.80;;;;;;4930849;29;20031;-76
2023/09/01 09:43:02;;;;;;;1.45;0.30;;;24.00;97.30;;;;;;4940976;29;20046;-76
2023/09/01 09:45:34;;;;;;;1.83;0.45;;;23.90;97.30;;;;;;4930291;29;20031;-76
2023/09/01 09:48:19;;;;;;;3.40;0.60;;;24.10;96.90;;;;;;4947641;29;20035;-75
2023/09/01 09:51:22;;;;;;;2.63;0.43;;;24.00;96.00;;;;;;4940971;29;20024;-74
2023/09/01 09:54:29;;;;;;;2.28;0.70;;;23.60;95.60;;;;;;4941284;29;20024;-76
2023/09/01 09:57:14;;;;;;;2.65;0.60;;;23.10;96.80;;;;;;4930582;29;20028;-76
2023/09/01 09:59:50;;;;;;;1.55;0.40;;;22.90;97.00;;;;;;4907071;29;20032;-75
2023/09/01 10:02:23;;;;;;;2.03;0.70;;;22.70;97.90;;;;;;4911063;29;20027;-76
2023/09/01 10:04:53;;;;;;;1.75;0.63;;;22.40;98.90;;;;;;4928603;29;20071;-73
2023/09/01 10:07:20;;;;;;;2.55;0.60;;;22.20;99.50;;;;;;4911247;29;20032;-73
2023/09/01 10:09:46;;;;;;;2.08;0.70;;;21.80;99.90;;;;;;4900763;29;20038;-72
2023/09/01 10:12:12;;;;;;;1.67;0.45;;;21.80;99.90;;;;;;4907745;29;20040;-73
2023/09/01 10:14:39;;;;;;;1.98;0.60;;;21.70;99.90;;;;;;4941079;29;20048;-72
2023/09/01 10:17:13;;;;;;;2.40;0.60;;;21.70;99.90;;;;;;4937983;29;20040;-73
2023/09/01 10:19:42;;;;;;;3.05;0.95;;;21.60;99.90;;;;;;4930139;29;20035;-73
2023/09/01 10:22:08;;;;;;;2.17;0.57;;;21.40;99.90;;;;;;4946738;29;20023;-73
2023/09/01 10:24:34;;;;;;;2.20;0.80;;;21.50;99.90;;;;;;4945907;29;20099;-72
2023/09/01 10:27:10;;;;;;;1.13;0.40;;;21.50;99.90;;;;;;4926623;29;20095;-73
2023/09/01 10:29:38;;;;;;;1.77;0.60;;;21.90;99.90;;;;;;4895740;29;20035;-73
2023/09/01 10:32:19;;;;;;;2.47;0.70;;;22.20;99.90;;;;;;4911328;29;20044;-73
2023/09/01 10:34:52;;;;;;;1.92;0.63;;;22.60;99.90;;;;;;4911326;29;20036;-74
2023/09/01 10:37:30;;;;;;;1.33;0.57;;;22.70;99.90;;;;;;4927160;29;20210;-75
2023/09/01 10:39:59;;;;;;;;;;;22.80;99.90;;;;;;4895660;29;20034;-77
2023/09/01 10:42:48;;;;;;;1.60;0.50;;;22.70;99.90;;;;;;4927187;29;19977;-73
2023/09/01 10:45:17;;;;;;;3.35;0.70;;;22.70;99.90;;;;;;4910274;29;20027;-76
2023/09/01 10:47:54;;;;;;;3.45;0.65;;;22.70;99.20;;;;;;4927231;29;20099;-76
2023/09/01 10:50:23;;;;;;;1.47;0.53;;;22.70;99.30;;;;;;4909971;29;20341;-75
2023/09/01 10:53:33;;;;;;;1.75;0.50;;;22.90;99.20;;;;;;4944687;29;20086;-74
2023/09/01 10:56:06;;;;;;;1.92;0.65;;;23.10;99.30;;;;;;4960902;29;20170;-74
2023/09/01 10:58:49;;;;;;;1.23;0.50;;;23.70;97.70;;;;;;4949533;29;20040;-74
2023/09/01 11:01:45;;;;;;;2.05;0.75;;;23.70;97.40;;;;;;4926580;29;20068;-75
2023/09/01 11:04:20;;;;;;;1.63;0.50;;;23.70;97.40;;;;;;4927071;29;20048;-75
2023/09/01 11:06:59;;;;;;;1.55;0.70;;;23.80;97.30;;;;;;4909635;29;20443;-75
2023/09/01 11:09:34;;;;;;;3.00;0.80;;;24.20;98.80;;;;;;4909504;29;20206;-75
2023/09/01 11:12:04;;;;;;;1.77;0.77;;;24.30;95.80;;;;;;4928594;29;20027;-75
2023/09/01 11:14:34;;;;;;;1.65;0.75;;;24.60;95.20;;;;;;4934300;29;20054;-75
2023/09/01 11:17:16;;;;;;;3.30;0.77;;;24.80;94.20;;;;;;4939966;29;20032;-75
2023/09/01 11:19:50;;;;;;;2.53;0.60;;;24.70;94.70;;;;;;4922946;29;20123;-75
2023/09/01 11:22:32;;;;;;;1.83;0.60;;;24.90;94.80;;;;;;4927971;29;20039;-75
2023/09/01 11:24:57;;;;;;;3.20;0.82;;;25.30;92.10;;;;;;4945690;29;20028;-75
2023/09/01 11:27:30;;;;;;;2.55;0.70;;;25.70;93.10;;;;;;4927646;29;20087;-75
2023/09/01 11:30:06;;;;;;;2.83;0.70;;;25.80;91.70;;;;;;4914237;29;20068;-75
2023/09/01 11:32:32;;;;;;;2.75;0.60;;;26.20;91.10;;;;;;4926196;29;20045;-75
2023/09/01 11:35:09;;;;;;;1.77;0.77;;;26.30;91.00;;;;;;4926447;29;20032;-74
2023/09/01 11:37:51;;;;;;;2.40;0.80;;;26.80;90.20;;;;;;4916235;29;20051;-74
2023/09/01 11:40:41;;;;;;;2.05;0.63;;;26.60;90.80;;;;;;4926431;29;20139;-75
2023/09/01 11:43:16;;;;;;;2.13;0.68;;;27.00;90.60;;;;;;4925321;29;20040;-74
2023/09/01 11:45:46;;;;;;;1.95;0.80;;;26.80;88.80;;;;;;4927574;29;20038;-75
2023/09/01 11:48:24;;;;;;;2.00;0.65;;;26.60;90.20;;;;;;4945567;29;20032;-74
2023/09/01 11:51:03;;;;;;;2.05;0.40;;;25.80;90.80;;;;;;4945398;29;20209;-75
2023/09/01 11:54:06;;;;;;;1.73;0.70;;;26.60;89.70;;;;;;4930345;29;20091;-75
2023/09/01 11:56:38;;;;;;;3.85;0.65;;;28.40;85.90;;;;;;4945003;29;20080;-75
2023/09/01 11:59:04;;;;;;;2.42;0.80;;;28.70;82.90;;;;;;4945238;29;20066;-75
2023/09/01 12:01:59;;;;;;;2.30;0.60;;;30.10;82.60;;;;;;4895147;29;20092;-75
2023/09/01 12:04:31;;;;;;;3.95;0.60;;;31.30;77.00;;;;;;4918546;29;20047;-75
2023/09/01 12:06:57;;;;;;;1.60;0.60;;;30.90;75.40;;;;;;4945185;29;20038;-75
2023/09/01 12:09:29;;;;;;;2.20;0.40;;;29.70;75.80;;;;;;4927779;29;20024;-75
2023/09/01 12:12:07;;;;;;;1.58;0.40;;;29.70;77.40;;;;;;4937936;29;20038;-75
2023/09/01 12:14:36;;;;;;;1.70;0.60;;;30.90;75.50;;;;;;4927168;29;20043;-75
2023/09/01 12:17:23;;;;;;;0.90;0.35;;;31.70;71.10;;;;;;4944578;29;20098;-76
2023/09/01 12:20:15;;;;;;;1.70;0.52;;;32.30;70.80;;;;;;4944714;29;20052;-75
2023/09/01 12:22:43;;;;;;;2.55;0.40;;;32.80;68.70;;;;;;4945390;29;20349;-76
2023/09/01 12:25:09;;;;;;;1.30;0.50;;;34.00;68.20;;;;;;4944696;29;20031;-74
2023/09/01 12:27:35;;;;;;;2.08;0.45;;;34.60;66.90;;;;;;4944276;29;20210;-75
2023/09/01 12:30:01;;;;;;;1.00;0.30;;;34.90;64.80;;;;;;4945077;29;20310;-74
2023/09/01 12:32:36;;;;;;;2.17;0.40;;;35.60;63.10;;;;;;4944514;29;20220;-74
2023/09/01 12:35:02;;;;;;;1.92;0.50;;;36.20;62.00;;;;;;4944535;29;20489;-74
2023/09/01 12:37:31;;;;;;;1.75;0.40;;;35.80;60.20;;;;;;4944555;29;20040;-74
2023/09/01 12:39:57;;;;;;;1.70;0.40;;;35.10;62.00;;;;;;4944773;29;20042;-75
2023/09/01 12:42:22;;;;;;;2.28;0.93;;;34.40;61.90;;;;;;4927937;29;20124;-75
2023/09/01 12:44:54;;;;;;;1.42;0.43;;;33.00;63.00;;;;;;4945114;29;20258;-74
2023/09/01 12:47:38;;;;;;;1.20;0.40;;;31.60;65.40;;;;;;4944550;29;20040;-74
2023/09/01 12:50:25;;;;;;;1.80;0.60;;;30.10;67.60;;;;;;4948146;29;20027;-74
2023/09/01 12:53:09;;;;;;;1.75;0.43;;;29.10;69.70;;;;;;4931869;29;20221;-74
2023/09/01 12:56:10;;;;;;;1.50;0.63;;;28.20;71.20;;;;;;4948063;29;20036;-74
2023/09/01 12:58:42;;;;;;;1.30;0.60;;;27.90;73.50;;;;;;4947756;29;20389;-74
2023/09/01 13:01:20;;;;;;;1.50;0.52;;;27.90;73.50;;;;;;4948558;29;20031;-73
2023/09/01 13:03:45;;;;;;;2.65;0.60;;;27.80;72.40;;;;;;4947869;29;20381;-74
2023/09/01 13:06:11;;;;;;;2.35;0.60;;;27.60;73.50;;;;;;4929299;29;20040;-75
2023/09/01 13:08:37;;;;;;;1.67;0.70;;;27.60;73.40;;;;;;4928601;29;20028;-74
2023/09/01 13:11:17;;;;;;;3.63;0.85;;;27.90;73.60;;;;;;4929029;29;20226;-76
2023/09/01 13:14:18;;;;;;;1.88;0.60;;;28.40;72.50;;;;;;4930698;29;20103;-75
2023/09/01 13:16:55;;;;;;;1.85;0.50;;;28.20;71.90;;;;;;4905664;29;20084;-75
2023/09/01 13:19:20;;;;;;;1.67;0.70;;;27.60;73.10;;;;;;4917929;29;20052;-75
2023/09/01 13:21:52;;;;;;;1.48;0.60;;;27.60;74.30;;;;;;4910092;29;20095;-75
2023/09/01 13:24:18;;;;;;;2.63;0.70;;;27.50;74.20;;;;;;4892863;29;20067;-76
2023/09/01 13:26:43;;;;;;;2.28;0.70;;;27.10;75.30;;;;;;4909674;29;20039;-75
2023/09/01 13:29:09;;;;;;;2.03;0.70;;;26.80;77.30;;;;;;4909825;29;20024;-75
2023/09/01 13:31:42;;;;;;;2.45;0.70;;;27.00;75.30;;;;;;4893338;29;20138;-75
2023/09/01 13:34:07;;;;;;;1.52;0.55;;;27.10;74.50;;;;;;4893212;29;20111;-74
2023/09/01 13:36:35;;;;;;;1.45;0.50;;;27.40;74.30;;;;;;4908772;29;20036;-75
2023/09/01 13:39:01;;;;;;;3.05;0.65;;;28.20;73.00;;;;;;4909736;29;20032;-74
2023/09/01 13:41:30;;;;;;;1.48;0.50;;;30.00;71.70;;;;;;4909257;29;20393;-74
2023/09/01 13:44:25;;;;;;;1.55;0.43;;;32.30;68.10;;;;;;4909064;29;20039;-75
2023/09/01 13:46:50;;;;;;;1.90;0.47;;;34.40;63.40;;;;;;4902711;29;20044;-75
2023/09/01 13:49:19;;;;;;;1.90;0.55;;;36.00;60.50;;;;;;4892807;29;20147;-74
2023/09/01 13:51:45;;;;;;;1.52;0.50;;;35.60;59.70;;;;;;4909446;29;20036;-75
2023/09/01 13:54:10;;;;;;;1.13;0.40;;;35.50;61.90;;;;;;4909844;29;20028;-74
2023/09/01 13:56:49;;;;;;;1.23;0.40;;;37.50;58.50;;;;;;4892193;29;20040;-74
2023/09/01 13:59:15;;;;;;;2.22;0.70;;;38.80;56.60;;;;;;4902389;29;20088;-74
2023/09/01 14:01:41;;;;;;;1.73;0.68;;;39.70;55.70;;;;;;4908623;29;20040;-74
2023/09/01 14:04:07;;;;;;;1.17;0.50;;;39.50;54.30;;;;;;4909459;29;20040;-74
2023/09/01 14:06:35;;;;;;;1.50;0.50;;;38.40;55.20;;;;;;4908789;29;20025;-74
2023/09/01 14:09:04;;;;;;;1.35;0.55;;;36.20;56.60;;;;;;4908867;29;20334;-76
2023/09/01 14:11:30;;;;;;;1.33;0.50;;;34.70;59.30;;;;;;4908563;29;20273;-76
2023/09/01 14:13:55;;;;;;;2.75;0.57;;;32.80;60.40;;;;;;4896218;29;20024;-75
2023/09/01 14:16:22;;;;;;;2.00;0.52;;;30.70;63.70;;;;;;4908461;29;20032;-74
2023/09/01 14:18:48;;;;;;;1.50;0.73;;;30.30;65.30;;;;;;4914166;29;20056;-73
2023/09/01 14:21:14;;;;;;;2.17;0.80;;;30.00;66.60;;;;;;4927892;29;20250;-74
2023/09/01 14:23:39;;;;;;;1.80;0.60;;;30.70;64.50;;;;;;4927074;29;20028;-75
2023/09/01 14:26:09;;;;;;;1.67;0.50;;;32.60;64.00;;;;;;4927453;29;20067;-74
2023/09/01 14:28:43;;;;;;;1.58;0.70;;;33.90;60.40;;;;;;4927628;29;20333;-75
2023/09/01 14:31:09;;;;;;;1.50;0.50;;;35.90;58.90;;;;;;4932863;29;20272;-76
2023/09/01 14:33:35;;;;;;;2.08;0.60;;;35.20;57.20;;;;;;4914303;29;20354;-75
2023/09/01 14:36:00;;;;;;;1.70;0.50;;;35.60;57.30;;;;;;4915504;29;20032;-73
2023/09/01 14:38:26;;;;;;;1.58;0.50;;;36.40;56.40;;;;;;4932601;29;20040;-75
2023/09/01 14:40:57;;;;;;;1.20;0.55;;;37.80;55.70;;;;;;4927643;29;20036;-75
2023/09/01 14:43:23;;;;;;;1.45;0.60;;;38.70;53.60;;;;;;4919646;29;20047;-76
2023/09/01 14:45:49;;;;;;;1.23;0.50;;;38.00;55.80;;;;;;4929345;29;20218;-75
2023/09/01 14:48:14;;;;;;;1.35;0.50;;;38.80;54.30;;;;;;4936046;29;20262;-73
2023/09/01 14:50:40;;;;;;;1.88;0.60;;;36.70;56.20;;;;;;4919885;29;20046;-75
2023/09/01 14:53:06;;;;;;;1.73;0.70;;;36.20;56.50;;;;;;4946584;29;20036;-74
2023/09/01 14:55:32;;;;;;;1.52;0.43;;;35.30;57.50;;;;;;4930956;29;20039;-74
2023/09/01 14:57:58;;;;;;;0.82;0.40;;;34.30;59.20;;;;;;4930297;29;20031;-74
2023/09/01 15:00:24;;;;;;;1.70;0.50;;;33.10;60.70;;;;;;4945660;29;20071;-75
2023/09/01 15:02:49;;;;;;;1.35;0.50;;;32.00;62.80;;;;;;4926367;29;20096;-74
2023/09/01 15:05:18;;;;;;;2.35;0.45;;;31.70;63.20;;;;;;4926775;29;20047;-73
2023/09/01 15:08:05;;;;;;;1.90;0.70;;;31.40;64.50;;;;;;4927210;29;20426;-75
2023/09/01 15:10:34;;;;;;;1.25;0.47;;;30.80;65.50;;;;;;4925809;29;20032;-74
2023/09/01 15:13:34;;;;;;;1.45;0.50;;;30.40;67.30;;;;;;4926452;29;20306;-74
2023/09/01 15:16:03;;;;;;;2.10;0.60;;;30.70;68.10;;;;;;4927071;29;20103;-74
2023/09/01 15:18:49;;;;;;;2.28;0.80;;;30.60;65.90;;;;;;4928704;29;20211;-74
2023/09/01 15:21:26;;;;;;;1.40;0.70;;;30.20;66.60;;;;;;4930067;29;20043;-74
2023/09/01 15:23:52;;;;;;;1.95;0.75;;;29.80;68.70;;;;;;4926451;29;20039;-74
2023/09/01 15:26:21;;;;;;;2.28;0.52;;;29.30;70.50;;;;;;4894251;29;20046;-74
2023/09/01 15:28:47;;;;;;;1.88;0.60;;;29.00;69.50;;;;;;4925888;29;20052;-74
2023/09/01 15:31:48;;;;;;;2.05;0.70;;;28.40;71.10;;;;;;4910113;29;20047;-74
2023/09/01 15:34:17;;;;;;;3.50;0.90;;;28.00;72.70;;;;;;4926777;29;20065;-74
2023/09/01 15:36:42;;;;;;;1.90;0.55;;;28.00;71.80;;;;;;4926011;29;20043;-75
2023/09/01 15:39:09;;;;;;;1.60;0.57;;;29.00;70.60;;;;;;4926474;29;20028;-73
2023/09/01 15:41:34;;;;;;;2.03;0.50;;;29.60;70.60;;;;;;4925914;29;20286;-74
2023/09/01 15:44:02;;;;;;;1.92;0.93;;;30.20;67.20;;;;;;4909439;29;20040;-75
2023/09/01 15:46:35;;;;;;;3.00;1.23;;;29.90;68.10;;;;;;4936422;29;20027;-74
2023/09/01 15:49:02;;;;;;;1.42;0.70;;;29.70;69.10;;;;;;4945377;29;20325;-75
2023/09/01 15:51:28;;;;;;;2.10;0.60;;;30.20;67.90;;;;;;4944909;29;20035;-75
2023/09/01 15:53:59;;;;;;;2.95;0.70;;;30.80;67.10;;;;;;4945310;29;20035;-76
2023/09/01 15:56:49;;;;;;;1.88;0.70;;;31.60;65.20;;;;;;4931907;29;20351;-76
2023/09/01 15:59:15;;;;;;;1.75;0.60;;;32.00;64.60;;;;;;4944978;29;20032;-75
2023/09/01 16:01:41;;;;;;;1.40;0.60;;;31.60;64.50;;;;;;4927718;29;20317;-75
2023/09/01 16:04:06;;;;;;;1.52;0.50;;;31.10;65.50;;;;;;4926931;29;20043;-77
2023/09/01 16:06:47;;;;;;;2.60;0.95;;;30.90;66.00;;;;;;4924313;29;20063;-76
2023/09/01 16:09:19;;;;;;;2.38;0.90;;;30.50;66.90;;;;;;4926292;29;20036;-75
2023/09/01 16:11:48;;;;;;;1.98;0.82;;;30.00;68.70;;;;;;4926071;29;20032;-75
2023/09/01 16:14:22;;;;;;;3.13;0.63;;;29.30;70.50;;;;;;4941098;29;20024;-73
2023/09/01 16:17:13;;;;;;;2.30;0.77;;;28.50;72.60;;;;;;4931813;29;20083;-74
2023/09/01 16:19:39;;;;;;;3.35;1.42;;;27.90;74.60;;;;;;4944423;29;20122;-74
2023/09/01 16:22:04;;;;;;;3.25;0.93;;;27.50;74.80;;;;;;4945154;29;20028;-75
2023/09/01 16:24:42;;;;;;;2.33;0.70;;;27.20;77.60;;;;;;4948643;29;20237;-75
2023/09/01 16:27:08;;;;;;;3.35;0.93;;;27.10;78.10;;;;;;4949114;29;20226;-75
2023/09/01 16:29:44;;;;;;;2.70;0.88;;;26.90;79.60;;;;;;4923984;29;20050;-75
2023/09/01 16:32:10;;;;;;;2.90;0.80;;;26.70;78.90;;;;;;4948837;29;20050;-75
2023/09/01 16:34:36;;;;;;;2.47;0.82;;;26.70;77.80;;;;;;4931623;29;20031;-75
2023/09/01 16:37:02;;;;;;;3.20;0.70;;;26.80;79.00;;;;;;4932178;29;20035;-75
2023/09/01 16:40:25;;;;;;;1.75;0.73;;;26.90;78.20;;;;;;4915969;29;20035;-75
2023/09/01 16:42:56;;;;;;;2.55;0.82;;;26.80;78.80;;;;;;4890368;29;20104;-75
2023/09/01 16:45:25;;;;;;;2.30;0.50;;;26.90;78.40;;;;;;4874193;29;20427;-75
2023/09/01 16:47:50;;;;;;;2.45;0.80;;;27.00;77.00;;;;;;4890430;29;20132;-74
2023/09/01 16:50:16;;;;;;;2.55;0.82;;;27.30;76.70;;;;;;4873848;29;20044;-75
2023/09/01 16:52:42;;;;;;;2.03;0.60;;;28.40;73.90;;;;;;4889440;29;20374;-74
2023/09/01 16:55:12;;;;;;;2.75;0.60;;;29.30;71.80;;;;;;4874383;29;20033;-75
2023/09/01 16:57:38;;;;;;;1.95;0.75;;;29.80;70.30;;;;;;4873883;29;20037;-74
2023/09/01 17:00:04;;;;;;;2.72;0.70;;;30.10;72.00;;;;;;4874507;29;20208;-75
2023/09/01 17:03:07;;;;;;;2.17;0.80;;;30.40;69.20;;;;;;4874303;29;20286;-75
2023/09/01 17:09:20;;;;;;;2.50;0.82;;;30.10;70.00;;;;;;4890059;29;20195;-75
2023/09/01 17:12:42;;;;;;;3.58;1.35;;;29.40;70.90;;;;;;4889493;29;20198;-75
2023/09/01 17:15:16;;;;;;;2.10;0.80;;;28.40;73.40;;;;;;4908717;29;20099;-75
2023/09/01 17:18:03;;;;;;;2.55;0.80;;;27.30;75.10;;;;;;4907939;29;20264;-75
2023/09/01 17:20:29;;;;;;;2.83;0.80;;;26.90;78.60;;;;;;4947519;29;20329;-74
2023/09/01 17:23:03;;;;;;;3.13;1.20;;;26.40;78.60;;;;;;4948549;29;20032;-80
2023/09/01 17:25:31;;;;;;;1.98;0.65;;;25.90;80.70;;;;;;4915317;29;20038;-76
2023/09/01 17:28:30;;;;;;;1.95;0.73;;;25.70;79.60;;;;;;4948033;29;20035;-75
2023/09/01 17:31:44;;;;;;;2.80;1.05;;;25.40;80.90;;;;;;4908039;29;20051;-74
2023/09/01 17:34:31;;;;;;;2.20;0.70;;;25.10;83.00;;;;;;4897014;29;20132;-77
2023/09/01 17:36:57;;;;;;;1.80;0.85;;;24.70;82.20;;;;;;4908667;29;20104;-77
2023/09/01 17:39:55;;;;;;;3.13;1.10;;;24.50;83.60;;;;;;4908445;29;20040;-76
2023/09/01 17:55:27;;;;;;;2.92;1.58;;;24.10;87.90;;;;;;4854967;29;20102;-76
2023/09/01 18:09:17;;;;;;;5.13;1.70;;;23.20;91.10;;;;;;4815572;29;20021;-78
2023/09/01 18:12:38;;;;;;;3.45;1.55;;;23.00;91.60;;;;;;4815271;29;20066;-77
2023/09/01 18:19:22;;;;;;;5.25;1.80;;;22.40;93.00;;;;;;4765514;29;20039;-76
2023/09/01 18:22:00;;;;;;;4.00;1.70;;;22.50;92.90;;;;;;4796884;30;20088;-75
2023/09/01 18:24:29;;;;;;;;;;;22.30;93.20;;;;;;4796937;30;20082;-77
2023/09/01 18:26:55;;;;;;;3.67;1.75;;;22.20;93.20;;;;;;4796892;30;19910;-77
2023/09/01 18:33:14;;;;;;;3.53;1.58;;;21.90;93.60;;;;;;4771897;29;20058;-76
2023/09/01 18:42:37;;;;;;;4.80;2.47;;;21.50;94.80;;;;;;4870089;29;20060;-76
2023/09/01 18:45:09;;;;;;;4.70;2.00;;;21.50;95.20;;;;;;4869027;29;20440;-77
2023/09/01 18:47:38;;;;;;;4.82;2.60;;;21.50;95.00;;;;;;4850656;29;20030;-77
2023/09/01 18:50:56;;;;;;;3.75;2.10;;;21.40;95.40;;;;;;4834466;29;20033;-77
2023/09/01 18:53:24;;;;;;;6.85;2.55;;;21.40;95.40;;;;;;4908683;29;20051;-77
2023/09/01 18:56:15;;;;;;;4.70;2.50;;;21.30;95.50;;;;;;4894798;29;20040;-74
2023/09/01 18:58:50;;;;;;;4.32;2.42;;;21.30;95.30;;;;;;4927138;29;20340;-75
2023/09/01 19:08:44;;;;;;;6.00;2.47;;;21.00;95.40;;;;;;4928000;29;20018;-75
2023/09/01 19:11:16;;;;;;;3.88;2.20;;;20.90;96.10;;;;;;4910611;29;20075;-76
2023/09/01 19:13:43;;;;;;;4.90;2.40;;;20.90;96.10;;;;;;4936874;29;20310;-76
2023/09/01 19:19:23;;;;;;;5.43;3.35;;;20.60;96.40;;;;;;4945978;29;20084;-75
2023/09/01 19:21:53;;;;;;;6.90;3.63;;;20.50;97.00;;;;;;4913258;29;20035;-74
2023/09/01 19:24:30;;;;;;;8.02;3.90;;;20.40;97.30;;;;;;4929362;29;20032;-74
2023/09/01 19:27:00;;;;;;;6.75;3.78;;;20.30;97.60;;;;;;4945877;29;20138;-74
2023/09/01 19:29:41;;;;;;;8.38;4.07;;;20.20;97.90;;;;;;4928993;29;20217;-76
2023/09/01 19:32:15;;;;;;;5.68;3.85;;;20.20;98.10;;;;;;4945699;29;20064;-75
2023/09/01 19:34:44;;;;;;;7.50;4.05;;;20.10;98.50;;;;;;4928435;29;20043;-75
2023/09/01 19:37:19;;;;;;;6.22;3.45;;;20.10;98.60;;;;;;4946119;29;20425;-75
2023/09/01 19:39:53;;;;;;;7.15;4.25;;;20.00;98.80;;;;;;4912734;29;20203;-75
2023/09/01 19:42:34;;;;;;;7.18;4.38;;;20.00;99.00;;;;;;4929143;29;20090;-76
2023/09/01 19:45:45;;;;;;;5.47;2.90;;;19.90;99.10;;;;;;4913486;29;20372;-75
2023/09/01 19:48:13;;;;;;;5.45;3.00;;;19.80;99.20;;;;;;4850299;29;20308;-77
2023/09/01 19:54:38;;;;;;;4.70;2.28;;;19.60;99.30;;;;;;4795382;30;20249;-75
2023/09/01 20:08:37;;;;;;;5.00;2.03;;;19.10;99.90;;;;;;4741720;30;20031;-75
2023/09/01 20:25:34;;;;;;;7.32;2.55;;;18.70;99.90;;;;;;4741373;30;20049;-74
2023/09/01 20:28:28;;;;;;;6.45;2.97;;;18.70;99.90;;;;;;4805245;29;20047;-76
2023/09/01 20:34:47;;;;;;;6.85;3.40;;;18.70;99.90;;;;;;4815461;29;20403;-75
2023/09/01 20:37:13;;;;;;;7.03;3.40;;;18.70;99.90;;;;;;4869294;29;20092;-75
2023/09/01 20:39:47;;;;;;;7.55;2.80;;;18.70;99.90;;;;;;4908905;29;20032;-76
2023/09/01 20:42:14;;;;;;;5.90;2.90;;;18.70;99.90;;;;;;4909551;29;20028;-74
2023/09/01 20:44:47;;;;;;;6.88;2.60;;;18.70;99.90;;;;;;4893213;29;20024;-75
2023/09/01 20:48:10;;;;;;;;;;;18.70;99.90;;;;;;4929981;29;20030;-75
2023/09/01 20:58:59;;;;;;;8.30;3.22;;;18.60;99.90;;;;;;4855070;29;20134;-75
2023/09/01 21:01:25;;;;;;;6.10;3.10;;;18.50;99.90;;;;;;4813117;29;20039;-76
2023/09/01 21:04:20;;;;;;;5.32;2.70;;;18.50;99.90;;;;;;4812725;29;20046;-74
2023/09/01 21:06:57;;;;;;;6.50;2.70;;;18.40;99.90;;;;;;4776853;30;20050;-74
2023/09/01 21:09:23;;;;;;;6.20;2.40;;;18.40;99.90;;;;;;4778830;30;20073;-75